sensor_id;sensor_type;location;lat;lon;timestamp;P1;durP1;ratioP1;P2;durP2;ratioP2
41687;SDS011;27371;42.686;23.362;2022-08-18T00:04:34;15.43;;;4.93;;
41687;SDS011;27371;42.686;23.362;2022-08-18T00:07:03;9.48;;;4.80;;
41687;SDS011;27371;42.686;23.362;2022-08-18T00:09:34;7.90;;;4.47;;
41687;SDS011;27371;42.686;23.362;2022-08-18T00:12:03;6.63;;;4.55;;
41687;SDS011;27371;42.686;23.362;2022-08-18T00:14:31;8.90;;;4.30;;
41687;SDS011;27371;42.686;23.362;2022-08-18T00:16:57;6.40;;;4.13;;
41687;SDS011;27371;42.686;23.362;2022-08-18T00:19:23;10.80;;;4.20;;
41687;SDS011;27371;42.686;23.362;2022-08-18T00:21:49;8.63;;;4.43;;
41687;SDS011;27371;42.686;23.362;2022-08-18T00:24:15;7.43;;;4.05;;
41687;SDS011;27371;42.686;23.362;2022-08-18T00:26:40;5.90;;;4.00;;
41687;SDS011;27371;42.686;23.362;2022-08-18T00:29:06;7.50;;;4.50;;
41687;SDS011;27371;42.686;23.362;2022-08-18T00:31:31;6.03;;;4.60;;
41687;SDS011;27371;42.686;23.362;2022-08-18T00:33:57;7.75;;;4.82;;
41687;SDS011;27371;42.686;23.362;2022-08-18T00:36:22;6.97;;;4.80;;
41687;SDS011;27371;42.686;23.362;2022-08-18T00:38:48;8.02;;;4.32;;
41687;SDS011;27371;42.686;23.362;2022-08-18T00:41:14;4.80;;;3.80;;
41687;SDS011;27371;42.686;23.362;2022-08-18T00:43:47;6.20;;;4.22;;
41687;SDS011;27371;42.686;23.362;2022-08-18T00:46:16;7.50;;;4.25;;
41687;SDS011;27371;42.686;23.362;2022-08-18T00:48:44;9.00;;;4.57;;
41687;SDS011;27371;42.686;23.362;2022-08-18T00:51:12;6.65;;;4.05;;
41687;SDS011;27371;42.686;23.362;2022-08-18T00:56:22;10.00;;;4.43;;
41687;SDS011;27371;42.686;23.362;2022-08-18T01:01:40;7.68;;;4.30;;
41687;SDS011;27371;42.686;23.362;2022-08-18T01:04:09;5.32;;;4.28;;
41687;SDS011;27371;42.686;23.362;2022-08-18T01:09:26;9.02;;;4.07;;
41687;SDS011;27371;42.686;23.362;2022-08-18T01:11:52;6.78;;;4.20;;
41687;SDS011;27371;42.686;23.362;2022-08-18T01:14:17;6.55;;;4.30;;
41687;SDS011;27371;42.686;23.362;2022-08-18T01:16:44;5.88;;;4.18;;
41687;SDS011;27371;42.686;23.362;2022-08-18T01:19:32;8.75;;;4.53;;
41687;SDS011;27371;42.686;23.362;2022-08-18T01:24:50;7.30;;;4.22;;
41687;SDS011;27371;42.686;23.362;2022-08-18T01:27:37;5.80;;;4.45;;
41687;SDS011;27371;42.686;23.362;2022-08-18T01:30:06;4.88;;;4.13;;
41687;SDS011;27371;42.686;23.362;2022-08-18T01:32:34;8.82;;;4.38;;
41687;SDS011;27371;42.686;23.362;2022-08-18T01:35:01;9.45;;;4.10;;
41687;SDS011;27371;42.686;23.362;2022-08-18T01:37:28;6.97;;;4.03;;
41687;SDS011;27371;42.686;23.362;2022-08-18T01:39:54;5.97;;;4.72;;
41687;SDS011;27371;42.686;23.362;2022-08-18T01:42:19;6.63;;;4.55;;
41687;SDS011;27371;42.686;23.362;2022-08-18T01:44:45;5.57;;;4.47;;
41687;SDS011;27371;42.686;23.362;2022-08-18T01:47:13;6.85;;;4.47;;
41687;SDS011;27371;42.686;23.362;2022-08-18T01:49:39;7.05;;;4.18;;
41687;SDS011;27371;42.686;23.362;2022-08-18T01:52:07;5.93;;;4.07;;
41687;SDS011;27371;42.686;23.362;2022-08-18T01:54:34;7.80;;;4.50;;
41687;SDS011;27371;42.686;23.362;2022-08-18T01:56:59;6.63;;;4.20;;
41687;SDS011;27371;42.686;23.362;2022-08-18T01:59:25;6.45;;;4.35;;
41687;SDS011;27371;42.686;23.362;2022-08-18T02:01:51;7.57;;;4.40;;
41687;SDS011;27371;42.686;23.362;2022-08-18T02:04:24;10.30;;;4.43;;
41687;SDS011;27371;42.686;23.362;2022-08-18T02:06:52;7.57;;;4.40;;
41687;SDS011;27371;42.686;23.362;2022-08-18T02:09:20;6.72;;;4.45;;
41687;SDS011;27371;42.686;23.362;2022-08-18T02:11:46;6.40;;;4.47;;
41687;SDS011;27371;42.686;23.362;2022-08-18T02:14:12;6.40;;;4.45;;
41687;SDS011;27371;42.686;23.362;2022-08-18T02:16:37;6.45;;;4.50;;
41687;SDS011;27371;42.686;23.362;2022-08-18T02:19:02;5.75;;;4.28;;
41687;SDS011;27371;42.686;23.362;2022-08-18T02:21:28;6.15;;;4.93;;
41687;SDS011;27371;42.686;23.362;2022-08-18T02:23:53;5.28;;;4.45;;
41687;SDS011;27371;42.686;23.362;2022-08-18T02:26:20;9.40;;;4.43;;
41687;SDS011;27371;42.686;23.362;2022-08-18T02:28:46;6.35;;;4.13;;
41687;SDS011;27371;42.686;23.362;2022-08-18T02:31:16;7.75;;;4.93;;
41687;SDS011;27371;42.686;23.362;2022-08-18T02:33:44;8.35;;;4.10;;
41687;SDS011;27371;42.686;23.362;2022-08-18T02:36:11;6.03;;;4.38;;
41687;SDS011;27371;42.686;23.362;2022-08-18T02:38:38;6.00;;;4.45;;
41687;SDS011;27371;42.686;23.362;2022-08-18T02:41:06;9.40;;;4.72;;
41687;SDS011;27371;42.686;23.362;2022-08-18T02:43:34;7.00;;;4.47;;
41687;SDS011;27371;42.686;23.362;2022-08-18T02:46:02;9.50;;;5.18;;
41687;SDS011;27371;42.686;23.362;2022-08-18T02:48:28;10.35;;;5.40;;
41687;SDS011;27371;42.686;23.362;2022-08-18T02:51:03;6.65;;;5.18;;
41687;SDS011;27371;42.686;23.362;2022-08-18T02:53:29;9.82;;;5.05;;
41687;SDS011;27371;42.686;23.362;2022-08-18T02:56:03;6.55;;;5.50;;
41687;SDS011;27371;42.686;23.362;2022-08-18T02:58:49;6.30;;;4.60;;
41687;SDS011;27371;42.686;23.362;2022-08-18T03:01:17;6.78;;;5.32;;
41687;SDS011;27371;42.686;23.362;2022-08-18T03:03:43;6.47;;;5.13;;
41687;SDS011;27371;42.686;23.362;2022-08-18T03:06:09;10.02;;;5.85;;
41687;SDS011;27371;42.686;23.362;2022-08-18T03:08:34;9.63;;;4.97;;
41687;SDS011;27371;42.686;23.362;2022-08-18T03:11:00;8.95;;;5.25;;
41687;SDS011;27371;42.686;23.362;2022-08-18T03:13:25;7.63;;;5.13;;
41687;SDS011;27371;42.686;23.362;2022-08-18T03:15:51;6.82;;;5.60;;
41687;SDS011;27371;42.686;23.362;2022-08-18T03:18:17;9.63;;;5.47;;
41687;SDS011;27371;42.686;23.362;2022-08-18T03:20:42;9.15;;;5.85;;
41687;SDS011;27371;42.686;23.362;2022-08-18T03:23:09;9.68;;;5.90;;
41687;SDS011;27371;42.686;23.362;2022-08-18T03:25:41;10.05;;;5.68;;
41687;SDS011;27371;42.686;23.362;2022-08-18T03:28:08;12.77;;;5.68;;
41687;SDS011;27371;42.686;23.362;2022-08-18T03:30:33;8.30;;;5.35;;
41687;SDS011;27371;42.686;23.362;2022-08-18T03:32:59;8.00;;;5.88;;
41687;SDS011;27371;42.686;23.362;2022-08-18T03:35:25;7.20;;;5.72;;
41687;SDS011;27371;42.686;23.362;2022-08-18T03:37:50;10.80;;;5.88;;
41687;SDS011;27371;42.686;23.362;2022-08-18T03:40:16;9.48;;;6.93;;
41687;SDS011;27371;42.686;23.362;2022-08-18T03:42:41;8.93;;;6.82;;
41687;SDS011;27371;42.686;23.362;2022-08-18T03:45:07;11.38;;;6.70;;
41687;SDS011;27371;42.686;23.362;2022-08-18T03:47:33;11.73;;;6.78;;
41687;SDS011;27371;42.686;23.362;2022-08-18T03:49:58;7.97;;;6.25;;
41687;SDS011;27371;42.686;23.362;2022-08-18T03:52:24;8.75;;;6.10;;
41687;SDS011;27371;42.686;23.362;2022-08-18T03:54:49;9.60;;;5.45;;
41687;SDS011;27371;42.686;23.362;2022-08-18T03:57:15;11.45;;;6.65;;
41687;SDS011;27371;42.686;23.362;2022-08-18T03:59:40;10.27;;;6.70;;
41687;SDS011;27371;42.686;23.362;2022-08-18T04:02:07;10.48;;;7.05;;
41687;SDS011;27371;42.686;23.362;2022-08-18T04:04:33;11.35;;;6.65;;
41687;SDS011;27371;42.686;23.362;2022-08-18T04:07:01;8.43;;;7.15;;
41687;SDS011;27371;42.686;23.362;2022-08-18T04:09:31;8.98;;;7.13;;
41687;SDS011;27371;42.686;23.362;2022-08-18T04:12:01;9.98;;;7.03;;
41687;SDS011;27371;42.686;23.362;2022-08-18T04:14:31;12.45;;;6.90;;
41687;SDS011;27371;42.686;23.362;2022-08-18T04:16:57;11.10;;;7.50;;
41687;SDS011;27371;42.686;23.362;2022-08-18T04:19:23;8.45;;;6.20;;
41687;SDS011;27371;42.686;23.362;2022-08-18T04:21:50;10.30;;;7.65;;
41687;SDS011;27371;42.686;23.362;2022-08-18T04:24:16;9.23;;;6.55;;
41687;SDS011;27371;42.686;23.362;2022-08-18T04:26:43;7.30;;;6.57;;
41687;SDS011;27371;42.686;23.362;2022-08-18T04:29:12;9.30;;;5.90;;
41687;SDS011;27371;42.686;23.362;2022-08-18T04:31:40;7.20;;;5.50;;
41687;SDS011;27371;42.686;23.362;2022-08-18T04:34:07;8.95;;;6.18;;
41687;SDS011;27371;42.686;23.362;2022-08-18T04:36:34;6.95;;;5.38;;
41687;SDS011;27371;42.686;23.362;2022-08-18T04:39:01;9.55;;;5.88;;
41687;SDS011;27371;42.686;23.362;2022-08-18T04:41:29;11.85;;;5.53;;
41687;SDS011;27371;42.686;23.362;2022-08-18T04:43:59;10.90;;;5.95;;
41687;SDS011;27371;42.686;23.362;2022-08-18T04:46:26;11.35;;;4.93;;
41687;SDS011;27371;42.686;23.362;2022-08-18T04:48:53;7.50;;;5.03;;
41687;SDS011;27371;42.686;23.362;2022-08-18T04:51:23;13.57;;;6.30;;
41687;SDS011;27371;42.686;23.362;2022-08-18T04:53:50;10.55;;;4.97;;
41687;SDS011;27371;42.686;23.362;2022-08-18T04:56:17;18.80;;;6.25;;
41687;SDS011;27371;42.686;23.362;2022-08-18T05:01:26;9.98;;;5.43;;
41687;SDS011;27371;42.686;23.362;2022-08-18T05:03:57;9.32;;;6.03;;
41687;SDS011;27371;42.686;23.362;2022-08-18T05:06:24;10.10;;;6.63;;
41687;SDS011;27371;42.686;23.362;2022-08-18T05:08:51;10.27;;;5.97;;
41687;SDS011;27371;42.686;23.362;2022-08-18T05:11:19;10.98;;;5.85;;
41687;SDS011;27371;42.686;23.362;2022-08-18T05:13:46;8.20;;;6.10;;
41687;SDS011;27371;42.686;23.362;2022-08-18T05:16:12;11.20;;;6.18;;
41687;SDS011;27371;42.686;23.362;2022-08-18T05:18:38;13.52;;;6.07;;
41687;SDS011;27371;42.686;23.362;2022-08-18T05:21:04;7.93;;;5.15;;
41687;SDS011;27371;42.686;23.362;2022-08-18T05:23:43;9.30;;;5.22;;
41687;SDS011;27371;42.686;23.362;2022-08-18T05:26:10;7.30;;;5.47;;
41687;SDS011;27371;42.686;23.362;2022-08-18T05:28:38;8.30;;;5.57;;
41687;SDS011;27371;42.686;23.362;2022-08-18T05:31:11;10.57;;;5.18;;
41687;SDS011;27371;42.686;23.362;2022-08-18T05:33:38;10.18;;;4.85;;
41687;SDS011;27371;42.686;23.362;2022-08-18T05:36:05;9.23;;;4.13;;
41687;SDS011;27371;42.686;23.362;2022-08-18T05:38:53;7.93;;;4.70;;
41687;SDS011;27371;42.686;23.362;2022-08-18T05:43:50;10.00;;;4.93;;
41687;SDS011;27371;42.686;23.362;2022-08-18T05:46:17;8.02;;;5.47;;
41687;SDS011;27371;42.686;23.362;2022-08-18T05:48:50;9.25;;;5.82;;
41687;SDS011;27371;42.686;23.362;2022-08-18T05:51:18;9.88;;;5.70;;
41687;SDS011;27371;42.686;23.362;2022-08-18T05:54:02;9.18;;;5.65;;
41687;SDS011;27371;42.686;23.362;2022-08-18T05:56:48;10.75;;;5.55;;
41687;SDS011;27371;42.686;23.362;2022-08-18T05:59:30;10.30;;;5.55;;
41687;SDS011;27371;42.686;23.362;2022-08-18T06:02:11;12.85;;;6.40;;
41687;SDS011;27371;42.686;23.362;2022-08-18T06:07:16;14.02;;;6.30;;
41687;SDS011;27371;42.686;23.362;2022-08-18T06:09:50;11.00;;;6.47;;
41687;SDS011;27371;42.686;23.362;2022-08-18T06:12:32;20.30;;;7.22;;
41687;SDS011;27371;42.686;23.362;2022-08-18T06:15:03;15.57;;;6.60;;
41687;SDS011;27371;42.686;23.362;2022-08-18T06:26:22;13.88;;;6.18;;
41687;SDS011;27371;42.686;23.362;2022-08-18T06:34:24;9.65;;;5.65;;
41687;SDS011;27371;42.686;23.362;2022-08-18T06:36:54;14.77;;;5.65;;
41687;SDS011;27371;42.686;23.362;2022-08-18T06:39:30;10.85;;;5.82;;
41687;SDS011;27371;42.686;23.362;2022-08-18T06:42:00;11.70;;;5.72;;
41687;SDS011;27371;42.686;23.362;2022-08-18T06:44:36;8.35;;;5.50;;
41687;SDS011;27371;42.686;23.362;2022-08-18T06:49:46;9.35;;;5.28;;
41687;SDS011;27371;42.686;23.362;2022-08-18T06:52:30;12.20;;;5.47;;
41687;SDS011;27371;42.686;23.362;2022-08-18T06:55:04;12.30;;;5.50;;
41687;SDS011;27371;42.686;23.362;2022-08-18T07:00:22;10.40;;;5.63;;
41687;SDS011;27371;42.686;23.362;2022-08-18T07:10:49;15.27;;;5.60;;
41687;SDS011;27371;42.686;23.362;2022-08-18T07:13:21;7.70;;;4.45;;
41687;SDS011;27371;42.686;23.362;2022-08-18T07:15:50;14.73;;;5.05;;
41687;SDS011;27371;42.686;23.362;2022-08-18T07:18:22;13.90;;;5.07;;
41687;SDS011;27371;42.686;23.362;2022-08-18T07:20:51;9.40;;;4.72;;
41687;SDS011;27371;42.686;23.362;2022-08-18T07:26:12;9.63;;;4.68;;
41687;SDS011;27371;42.686;23.362;2022-08-18T07:28:45;8.93;;;4.40;;
41687;SDS011;27371;42.686;23.362;2022-08-18T07:31:17;11.07;;;4.70;;
41687;SDS011;27371;42.686;23.362;2022-08-18T07:33:50;9.20;;;4.63;;
41687;SDS011;27371;42.686;23.362;2022-08-18T07:36:21;12.52;;;5.28;;
41687;SDS011;27371;42.686;23.362;2022-08-18T07:38:52;12.60;;;5.72;;
41687;SDS011;27371;42.686;23.362;2022-08-18T07:41:23;10.23;;;4.45;;
41687;SDS011;27371;42.686;23.362;2022-08-18T07:44:18;10.38;;;4.07;;
41687;SDS011;27371;42.686;23.362;2022-08-18T07:49:16;8.93;;;4.00;;
41687;SDS011;27371;42.686;23.362;2022-08-18T07:51:46;10.10;;;4.65;;
41687;SDS011;27371;42.686;23.362;2022-08-18T07:54:37;10.77;;;4.72;;
41687;SDS011;27371;42.686;23.362;2022-08-18T07:57:34;9.52;;;4.65;;
41687;SDS011;27371;42.686;23.362;2022-08-18T08:07:58;8.40;;;4.03;;
41687;SDS011;27371;42.686;23.362;2022-08-18T08:10:32;10.23;;;3.42;;
41687;SDS011;27371;42.686;23.362;2022-08-18T08:13:10;5.80;;;3.42;;
41687;SDS011;27371;42.686;23.362;2022-08-18T08:19:43;7.38;;;3.13;;
41687;SDS011;27371;42.686;23.362;2022-08-18T08:22:50;7.55;;;3.03;;
41687;SDS011;27371;42.686;23.362;2022-08-18T08:30:27;9.50;;;3.47;;
41687;SDS011;27371;42.686;23.362;2022-08-18T08:33:10;8.68;;;3.70;;
41687;SDS011;27371;42.686;23.362;2022-08-18T08:35:47;6.88;;;3.55;;
41687;SDS011;27371;42.686;23.362;2022-08-18T08:38:27;7.03;;;3.65;;
41687;SDS011;27371;42.686;23.362;2022-08-18T08:43:34;6.88;;;3.28;;
41687;SDS011;27371;42.686;23.362;2022-08-18T08:48:45;6.15;;;3.05;;
41687;SDS011;27371;42.686;23.362;2022-08-18T08:54:01;9.40;;;3.13;;
41687;SDS011;27371;42.686;23.362;2022-08-18T08:59:02;6.90;;;2.38;;
41687;SDS011;27371;42.686;23.362;2022-08-18T09:04:22;9.35;;;2.60;;
41687;SDS011;27371;42.686;23.362;2022-08-18T09:17:36;7.40;;;2.65;;
41687;SDS011;27371;42.686;23.362;2022-08-18T09:23:40;5.90;;;3.92;;
41687;SDS011;27371;42.686;23.362;2022-08-18T09:26:38;8.40;;;2.80;;
41687;SDS011;27371;42.686;23.362;2022-08-18T09:31:38;5.32;;;2.45;;
41687;SDS011;27371;42.686;23.362;2022-08-18T09:34:30;6.57;;;2.88;;
41687;SDS011;27371;42.686;23.362;2022-08-18T09:37:40;7.00;;;2.65;;
41687;SDS011;27371;42.686;23.362;2022-08-18T09:40:18;6.00;;;2.50;;
41687;SDS011;27371;42.686;23.362;2022-08-18T09:43:13;4.68;;;2.70;;
41687;SDS011;27371;42.686;23.362;2022-08-18T09:50:38;8.85;;;3.47;;
41687;SDS011;27371;42.686;23.362;2022-08-18T09:56:00;5.82;;;2.53;;
41687;SDS011;27371;42.686;23.362;2022-08-18T10:06:51;6.40;;;2.80;;
41687;SDS011;27371;42.686;23.362;2022-08-18T10:11:48;6.00;;;3.08;;
41687;SDS011;27371;42.686;23.362;2022-08-18T10:14:52;5.03;;;2.60;;
41687;SDS011;27371;42.686;23.362;2022-08-18T10:22:57;3.92;;;2.60;;
41687;SDS011;27371;42.686;23.362;2022-08-18T10:25:30;11.73;;;3.40;;
41687;SDS011;27371;42.686;23.362;2022-08-18T10:27:55;4.55;;;2.53;;
41687;SDS011;27371;42.686;23.362;2022-08-18T10:33:01;5.38;;;2.22;;
41687;SDS011;27371;42.686;23.362;2022-08-18T10:38:01;3.70;;;2.80;;
41687;SDS011;27371;42.686;23.362;2022-08-18T10:40:35;2.78;;;2.13;;
41687;SDS011;27371;42.686;23.362;2022-08-18T10:43:27;6.07;;;2.58;;
41687;SDS011;27371;42.686;23.362;2022-08-18T10:45:59;4.60;;;2.42;;
41687;SDS011;27371;42.686;23.362;2022-08-18T10:48:32;4.10;;;2.47;;
41687;SDS011;27371;42.686;23.362;2022-08-18T10:54:01;6.13;;;3.20;;
41687;SDS011;27371;42.686;23.362;2022-08-18T10:56:41;6.32;;;2.20;;
41687;SDS011;27371;42.686;23.362;2022-08-18T11:05:09;8.13;;;2.53;;
41687;SDS011;27371;42.686;23.362;2022-08-18T11:07:36;6.95;;;2.50;;
41687;SDS011;27371;42.686;23.362;2022-08-18T11:10:17;3.05;;;1.88;;
41687;SDS011;27371;42.686;23.362;2022-08-18T11:20:31;5.50;;;2.20;;
41687;SDS011;27371;42.686;23.362;2022-08-18T11:22:58;2.63;;;2.35;;
41687;SDS011;27371;42.686;23.362;2022-08-18T11:25:28;4.88;;;2.30;;
41687;SDS011;27371;42.686;23.362;2022-08-18T11:27:56;6.30;;;2.17;;
41687;SDS011;27371;42.686;23.362;2022-08-18T11:30:24;4.05;;;2.55;;
41687;SDS011;27371;42.686;23.362;2022-08-18T11:32:52;4.80;;;2.30;;
41687;SDS011;27371;42.686;23.362;2022-08-18T11:35:20;3.50;;;2.20;;
41687;SDS011;27371;42.686;23.362;2022-08-18T11:37:55;4.82;;;2.47;;
41687;SDS011;27371;42.686;23.362;2022-08-18T11:40:46;5.35;;;2.28;;
41687;SDS011;27371;42.686;23.362;2022-08-18T11:43:19;8.18;;;2.30;;
41687;SDS011;27371;42.686;23.362;2022-08-18T11:45:54;4.10;;;2.65;;
41687;SDS011;27371;42.686;23.362;2022-08-18T11:54:02;7.93;;;2.40;;
41687;SDS011;27371;42.686;23.362;2022-08-18T11:56:28;3.88;;;2.17;;
41687;SDS011;27371;42.686;23.362;2022-08-18T12:03:51;3.50;;;2.08;;
41687;SDS011;27371;42.686;23.362;2022-08-18T12:08:58;4.35;;;2.22;;
41687;SDS011;27371;42.686;23.362;2022-08-18T12:11:30;4.65;;;2.40;;
41687;SDS011;27371;42.686;23.362;2022-08-18T12:14:01;4.97;;;2.67;;
41687;SDS011;27371;42.686;23.362;2022-08-18T12:16:38;5.22;;;3.00;;
41687;SDS011;27371;42.686;23.362;2022-08-18T12:19:07;6.43;;;2.58;;
41687;SDS011;27371;42.686;23.362;2022-08-18T12:21:41;7.53;;;3.33;;
41687;SDS011;27371;42.686;23.362;2022-08-18T12:24:24;2.33;;;2.00;;
41687;SDS011;27371;42.686;23.362;2022-08-18T12:26:54;4.80;;;2.35;;
41687;SDS011;27371;42.686;23.362;2022-08-18T12:29:20;3.92;;;1.92;;
41687;SDS011;27371;42.686;23.362;2022-08-18T12:31:47;4.72;;;2.47;;
41687;SDS011;27371;42.686;23.362;2022-08-18T12:34:15;5.35;;;2.22;;
41687;SDS011;27371;42.686;23.362;2022-08-18T12:36:43;4.57;;;2.28;;
41687;SDS011;27371;42.686;23.362;2022-08-18T12:39:10;6.30;;;2.53;;
41687;SDS011;27371;42.686;23.362;2022-08-18T12:41:35;7.32;;;2.60;;
41687;SDS011;27371;42.686;23.362;2022-08-18T12:44:01;2.90;;;2.30;;
41687;SDS011;27371;42.686;23.362;2022-08-18T12:46:27;2.67;;;2.28;;
41687;SDS011;27371;42.686;23.362;2022-08-18T12:48:54;5.28;;;2.70;;
41687;SDS011;27371;42.686;23.362;2022-08-18T12:51:19;2.30;;;2.10;;
41687;SDS011;27371;42.686;23.362;2022-08-18T12:53:45;5.45;;;2.58;;
41687;SDS011;27371;42.686;23.362;2022-08-18T12:56:22;3.65;;;2.00;;
41687;SDS011;27371;42.686;23.362;2022-08-18T12:58:50;4.35;;;2.60;;
41687;SDS011;27371;42.686;23.362;2022-08-18T13:01:17;5.07;;;2.78;;
41687;SDS011;27371;42.686;23.362;2022-08-18T13:03:44;4.88;;;2.50;;
41687;SDS011;27371;42.686;23.362;2022-08-18T13:06:11;6.32;;;2.70;;
41687;SDS011;27371;42.686;23.362;2022-08-18T13:08:38;3.47;;;2.60;;
41687;SDS011;27371;42.686;23.362;2022-08-18T13:11:04;3.63;;;2.35;;
41687;SDS011;27371;42.686;23.362;2022-08-18T13:13:34;3.80;;;2.38;;
41687;SDS011;27371;42.686;23.362;2022-08-18T13:16:04;2.97;;;2.30;;
41687;SDS011;27371;42.686;23.362;2022-08-18T13:18:36;5.80;;;2.75;;
41687;SDS011;27371;42.686;23.362;2022-08-18T13:21:10;6.07;;;2.50;;
41687;SDS011;27371;42.686;23.362;2022-08-18T13:23:37;6.03;;;2.65;;
41687;SDS011;27371;42.686;23.362;2022-08-18T13:26:04;4.30;;;2.38;;
41687;SDS011;27371;42.686;23.362;2022-08-18T13:28:33;4.38;;;2.20;;
41687;SDS011;27371;42.686;23.362;2022-08-18T13:30:59;3.95;;;2.17;;
41687;SDS011;27371;42.686;23.362;2022-08-18T13:33:26;4.22;;;2.47;;
41687;SDS011;27371;42.686;23.362;2022-08-18T13:35:52;6.13;;;2.17;;
41687;SDS011;27371;42.686;23.362;2022-08-18T13:38:18;2.78;;;1.92;;
41687;SDS011;27371;42.686;23.362;2022-08-18T13:40:47;3.20;;;2.25;;
41687;SDS011;27371;42.686;23.362;2022-08-18T13:43:15;6.40;;;2.30;;
41687;SDS011;27371;42.686;23.362;2022-08-18T13:45:43;4.45;;;2.35;;
41687;SDS011;27371;42.686;23.362;2022-08-18T13:48:10;5.25;;;2.70;;
41687;SDS011;27371;42.686;23.362;2022-08-18T13:50:36;5.05;;;2.60;;
41687;SDS011;27371;42.686;23.362;2022-08-18T13:53:08;5.93;;;2.28;;
41687;SDS011;27371;42.686;23.362;2022-08-18T13:55:38;4.72;;;2.28;;
41687;SDS011;27371;42.686;23.362;2022-08-18T13:58:04;3.28;;;2.22;;
41687;SDS011;27371;42.686;23.362;2022-08-18T14:00:29;7.03;;;2.80;;
41687;SDS011;27371;42.686;23.362;2022-08-18T14:02:55;3.42;;;1.85;;
41687;SDS011;27371;42.686;23.362;2022-08-18T14:05:22;3.28;;;2.10;;
41687;SDS011;27371;42.686;23.362;2022-08-18T14:07:48;4.35;;;2.10;;
41687;SDS011;27371;42.686;23.362;2022-08-18T14:10:13;6.03;;;2.20;;
41687;SDS011;27371;42.686;23.362;2022-08-18T14:12:40;4.03;;;2.20;;
41687;SDS011;27371;42.686;23.362;2022-08-18T14:15:08;3.97;;;2.38;;
41687;SDS011;27371;42.686;23.362;2022-08-18T14:17:37;4.55;;;2.40;;
41687;SDS011;27371;42.686;23.362;2022-08-18T14:20:03;5.20;;;2.45;;
41687;SDS011;27371;42.686;23.362;2022-08-18T14:22:52;3.95;;;2.20;;
41687;SDS011;27371;42.686;23.362;2022-08-18T14:25:37;2.78;;;2.10;;
41687;SDS011;27371;42.686;23.362;2022-08-18T14:28:21;4.13;;;2.45;;
41687;SDS011;27371;42.686;23.362;2022-08-18T14:30:47;4.60;;;2.65;;
41687;SDS011;27371;42.686;23.362;2022-08-18T14:33:12;3.80;;;2.97;;
41687;SDS011;27371;42.686;23.362;2022-08-18T14:35:46;5.40;;;2.75;;
41687;SDS011;27371;42.686;23.362;2022-08-18T14:38:12;7.90;;;3.40;;
41687;SDS011;27371;42.686;23.362;2022-08-18T14:40:40;7.15;;;2.88;;
41687;SDS011;27371;42.686;23.362;2022-08-18T14:43:08;6.65;;;2.60;;
41687;SDS011;27371;42.686;23.362;2022-08-18T14:45:34;7.15;;;2.38;;
41687;SDS011;27371;42.686;23.362;2022-08-18T14:48:01;4.22;;;2.42;;
41687;SDS011;27371;42.686;23.362;2022-08-18T14:50:27;4.13;;;2.58;;
41687;SDS011;27371;42.686;23.362;2022-08-18T14:52:53;5.03;;;2.38;;
41687;SDS011;27371;42.686;23.362;2022-08-18T14:55:19;3.38;;;2.50;;
41687;SDS011;27371;42.686;23.362;2022-08-18T14:57:45;5.70;;;2.72;;
41687;SDS011;27371;42.686;23.362;2022-08-18T15:00:13;4.70;;;2.67;;
41687;SDS011;27371;42.686;23.362;2022-08-18T15:02:41;4.00;;;2.67;;
41687;SDS011;27371;42.686;23.362;2022-08-18T15:05:10;4.03;;;2.70;;
41687;SDS011;27371;42.686;23.362;2022-08-18T15:07:37;5.07;;;2.83;;
41687;SDS011;27371;42.686;23.362;2022-08-18T15:10:04;5.40;;;2.70;;
41687;SDS011;27371;42.686;23.362;2022-08-18T15:12:30;4.15;;;2.58;;
41687;SDS011;27371;42.686;23.362;2022-08-18T15:14:56;5.88;;;2.97;;
41687;SDS011;27371;42.686;23.362;2022-08-18T15:17:24;4.68;;;2.90;;
41687;SDS011;27371;42.686;23.362;2022-08-18T15:19:51;7.38;;;2.78;;
41687;SDS011;27371;42.686;23.362;2022-08-18T15:22:17;5.30;;;2.75;;
41687;SDS011;27371;42.686;23.362;2022-08-18T15:25:01;5.90;;;2.33;;
41687;SDS011;27371;42.686;23.362;2022-08-18T15:27:46;3.85;;;2.50;;
41687;SDS011;27371;42.686;23.362;2022-08-18T15:30:13;5.70;;;2.50;;
41687;SDS011;27371;42.686;23.362;2022-08-18T15:32:44;4.95;;;2.75;;
41687;SDS011;27371;42.686;23.362;2022-08-18T15:35:10;6.88;;;3.10;;
41687;SDS011;27371;42.686;23.362;2022-08-18T15:37:40;7.28;;;2.60;;
41687;SDS011;27371;42.686;23.362;2022-08-18T15:42:41;6.43;;;2.90;;
41687;SDS011;27371;42.686;23.362;2022-08-18T15:45:08;5.47;;;2.80;;
41687;SDS011;27371;42.686;23.362;2022-08-18T15:47:34;4.70;;;2.78;;
41687;SDS011;27371;42.686;23.362;2022-08-18T15:50:00;7.20;;;3.88;;
41687;SDS011;27371;42.686;23.362;2022-08-18T15:52:25;5.32;;;3.20;;
41687;SDS011;27371;42.686;23.362;2022-08-18T15:54:51;3.50;;;2.83;;
41687;SDS011;27371;42.686;23.362;2022-08-18T15:57:17;4.20;;;2.90;;
41687;SDS011;27371;42.686;23.362;2022-08-18T15:59:43;6.22;;;2.90;;
41687;SDS011;27371;42.686;23.362;2022-08-18T16:02:08;5.95;;;2.70;;
41687;SDS011;27371;42.686;23.362;2022-08-18T16:04:34;6.60;;;2.80;;
41687;SDS011;27371;42.686;23.362;2022-08-18T16:07:02;4.22;;;2.80;;
41687;SDS011;27371;42.686;23.362;2022-08-18T16:09:28;4.25;;;2.67;;
41687;SDS011;27371;42.686;23.362;2022-08-18T16:11:54;6.47;;;2.80;;
41687;SDS011;27371;42.686;23.362;2022-08-18T16:14:19;6.20;;;3.00;;
41687;SDS011;27371;42.686;23.362;2022-08-18T16:16:45;4.35;;;3.05;;
41687;SDS011;27371;42.686;23.362;2022-08-18T16:19:10;4.88;;;2.90;;
41687;SDS011;27371;42.686;23.362;2022-08-18T16:21:36;8.45;;;2.92;;
41687;SDS011;27371;42.686;23.362;2022-08-18T16:24:03;8.43;;;3.50;;
41687;SDS011;27371;42.686;23.362;2022-08-18T16:26:29;6.85;;;3.20;;
41687;SDS011;27371;42.686;23.362;2022-08-18T16:28:55;5.57;;;3.08;;
41687;SDS011;27371;42.686;23.362;2022-08-18T16:31:21;6.85;;;2.80;;
41687;SDS011;27371;42.686;23.362;2022-08-18T16:33:50;9.00;;;3.65;;
41687;SDS011;27371;42.686;23.362;2022-08-18T16:36:20;8.30;;;3.95;;
41687;SDS011;27371;42.686;23.362;2022-08-18T16:38:50;5.93;;;3.70;;
41687;SDS011;27371;42.686;23.362;2022-08-18T16:41:16;6.65;;;3.38;;
41687;SDS011;27371;42.686;23.362;2022-08-18T16:43:43;6.43;;;3.72;;
41687;SDS011;27371;42.686;23.362;2022-08-18T16:46:12;5.60;;;3.47;;
41687;SDS011;27371;42.686;23.362;2022-08-18T16:48:39;5.70;;;3.03;;
41687;SDS011;27371;42.686;23.362;2022-08-18T16:51:05;6.72;;;3.67;;
41687;SDS011;27371;42.686;23.362;2022-08-18T16:53:31;5.18;;;3.30;;
41687;SDS011;27371;42.686;23.362;2022-08-18T16:55:56;4.65;;;3.08;;
41687;SDS011;27371;42.686;23.362;2022-08-18T16:58:22;6.82;;;3.03;;
41687;SDS011;27371;42.686;23.362;2022-08-18T17:01:06;4.53;;;2.90;;
41687;SDS011;27371;42.686;23.362;2022-08-18T17:03:50;7.97;;;3.03;;
41687;SDS011;27371;42.686;23.362;2022-08-18T17:06:31;7.88;;;3.55;;
41687;SDS011;27371;42.686;23.362;2022-08-18T17:08:58;7.15;;;3.30;;
41687;SDS011;27371;42.686;23.362;2022-08-18T17:11:24;9.63;;;8.18;;
41687;SDS011;27371;42.686;23.362;2022-08-18T17:13:54;17.20;;;14.77;;
41687;SDS011;27371;42.686;23.362;2022-08-18T17:16:22;15.38;;;12.95;;
41687;SDS011;27371;42.686;23.362;2022-08-18T17:18:49;14.00;;;5.47;;
41687;SDS011;27371;42.686;23.362;2022-08-18T17:21:17;6.47;;;5.65;;
41687;SDS011;27371;42.686;23.362;2022-08-18T17:23:45;8.52;;;6.30;;
41687;SDS011;27371;42.686;23.362;2022-08-18T17:26:25;6.72;;;4.15;;
41687;SDS011;27371;42.686;23.362;2022-08-18T17:29:04;8.70;;;4.13;;
41687;SDS011;27371;42.686;23.362;2022-08-18T17:31:30;4.88;;;3.58;;
41687;SDS011;27371;42.686;23.362;2022-08-18T17:34:03;5.57;;;2.92;;